Back to Top

Language: 

My Weather Underground Personal Weather Station Historical Data with Graphs...

Delerius Weather Station Historical Data
Daily Summary for February 7, 2018 Units:  English    Metric   Both
« Previous Day
Next Day »
Daily Weekly Monthly Yearly Custom
  High: Low: Average:
Temperature: 40.8 °F 27.7 °F 33.7 °F
Dew Point: 29.7 °F 23.1 °F 26.5 °F
Humidity: 86 % 54 % 75 %
Wind Speed: 9.0 mph 0.0 mph 3.7 mph
Wind Gust: 13.0 mph - -
Wind:- - WNW
Pressure: 30.19 in 30.06 in -
Precipitation: 0.00 in    
Historical Graphs
 
 
Tabular Data for February 7, 2018
Time Temperature Dew Point Pressure Wind Wind Speed Wind Gust Humidity Rainfall Rate (Hourly) solar Conditions
00:02 32.4 °F 27.5 °F 30.11 in WNW 7.0 mph 11.0 mph 82 % 0.00 in 0 W/m2
00:07 32.4 °F 27.5 °F 30.11 in WNW 7.0 mph 10.0 mph 82 % 0.00 in 0 W/m2
00:12 32.4 °F 27.5 °F 30.11 in WNW 5.0 mph 9.0 mph 82 % 0.00 in 0 W/m2
00:17 32.2 °F 27.0 °F 30.11 in WNW 6.0 mph 9.0 mph 81 % 0.00 in 0 W/m2
00:22 32.2 °F 27.0 °F 30.11 in WNW 6.0 mph 11.0 mph 81 % 0.00 in 0 W/m2
00:27 32.2 °F 27.0 °F 30.11 in WNW 5.0 mph 10.0 mph 81 % 0.00 in 0 W/m2
00:32 32.0 °F 26.8 °F 30.11 in WNW 4.0 mph 7.0 mph 81 % 0.00 in 0 W/m2
00:37 31.8 °F 26.7 °F 30.11 in NW 4.0 mph 9.0 mph 81 % 0.00 in 0 W/m2
00:42 31.6 °F 26.5 °F 30.11 in WNW 4.0 mph 10.0 mph 81 % 0.00 in 0 W/m2
00:47 31.6 °F 26.5 °F 30.12 in WNW 6.0 mph 10.0 mph 81 % 0.00 in 0 W/m2
00:52 31.6 °F 26.5 °F 30.12 in WNW 5.0 mph 9.0 mph 81 % 0.00 in 0 W/m2
00:57 31.5 °F 26.3 °F 30.12 in WNW 4.0 mph 7.0 mph 81 % 0.00 in 0 W/m2
01:02 31.5 °F 26.3 °F 30.12 in WNW 5.0 mph 9.0 mph 81 % 0.00 in 0 W/m2
01:07 31.5 °F 26.3 °F 30.12 in NW 5.0 mph 8.0 mph 81 % 0.00 in 0 W/m2
01:12 31.3 °F 26.1 °F 30.12 in NW 5.0 mph 8.0 mph 81 % 0.00 in 0 W/m2
01:17 31.3 °F 26.1 °F 30.12 in NW 7.0 mph 10.0 mph 81 % 0.00 in 0 W/m2
01:22 31.3 °F 26.1 °F 30.12 in WNW 4.0 mph 7.0 mph 81 % 0.00 in 0 W/m2
01:27 31.3 °F 26.1 °F 30.12 in NW 6.0 mph 10.0 mph 81 % 0.00 in 0 W/m2
01:32 31.3 °F 26.1 °F 30.12 in WNW 6.0 mph 10.0 mph 81 % 0.00 in 0 W/m2
01:37 31.5 °F 26.0 °F 30.12 in WNW 5.0 mph 8.0 mph 80 % 0.00 in 0 W/m2
01:42 31.5 °F 26.0 °F 30.12 in NW 5.0 mph 8.0 mph 80 % 0.00 in 0 W/m2
01:47 31.5 °F 26.0 °F 30.12 in NW 6.0 mph 9.0 mph 80 % 0.00 in 0 W/m2
01:52 31.5 °F 26.0 °F 30.12 in NW 6.0 mph 10.0 mph 80 % 0.00 in 0 W/m2
01:57 31.5 °F 26.0 °F 30.12 in WNW 6.0 mph 9.0 mph 80 % 0.00 in 0 W/m2
02:02 31.5 °F 26.0 °F 30.12 in NW 5.0 mph 9.0 mph 80 % 0.00 in 0 W/m2
02:07 31.5 °F 26.0 °F 30.12 in WNW 7.0 mph 11.0 mph 80 % 0.00 in 0 W/m2
02:12 31.5 °F 26.0 °F 30.12 in NW 5.0 mph 9.0 mph 80 % 0.00 in 0 W/m2
02:17 31.5 °F 26.0 °F 30.12 in WNW 6.0 mph 11.0 mph 80 % 0.00 in 0 W/m2
02:22 31.5 °F 26.0 °F 30.12 in WNW 5.0 mph 7.0 mph 80 % 0.00 in 0 W/m2
02:27 31.5 °F 26.0 °F 30.12 in NW 6.0 mph 9.0 mph 80 % 0.00 in 0 W/m2
02:32 31.5 °F 26.0 °F 30.12 in WNW 5.0 mph 8.0 mph 80 % 0.00 in 0 W/m2
02:37 31.5 °F 26.0 °F 30.12 in WNW 3.0 mph 7.0 mph 80 % 0.00 in 0 W/m2
02:42 31.5 °F 26.0 °F 30.12 in WNW 4.0 mph 7.0 mph 80 % 0.00 in 0 W/m2
02:47 31.5 °F 26.0 °F 30.12 in WNW 4.0 mph 7.0 mph 80 % 0.00 in 0 W/m2
02:52 31.3 °F 25.8 °F 30.12 in NW 3.0 mph 7.0 mph 80 % 0.00 in 0 W/m2
02:57 31.3 °F 25.8 °F 30.12 in WNW 5.0 mph 8.0 mph 80 % 0.00 in 0 W/m2
03:02 31.3 °F 25.8 °F 30.12 in WNW 5.0 mph 8.0 mph 80 % 0.00 in 0 W/m2
03:07 31.3 °F 25.8 °F 30.12 in WNW 5.0 mph 9.0 mph 80 % 0.00 in 0 W/m2
03:12 31.3 °F 25.8 °F 30.12 in WNW 6.0 mph 9.0 mph 80 % 0.00 in 0 W/m2
03:17 31.3 °F 25.8 °F 30.12 in WNW 6.0 mph 11.0 mph 80 % 0.00 in 0 W/m2
03:22 31.3 °F 25.5 °F 30.12 in NW 6.0 mph 10.0 mph 79 % 0.00 in 0 W/m2
03:27 31.3 °F 25.5 °F 30.12 in NW 6.0 mph 11.0 mph 79 % 0.00 in 0 W/m2
03:32 31.3 °F 25.5 °F 30.12 in WNW 6.0 mph 9.0 mph 79 % 0.00 in 0 W/m2
03:33 31.3 °F 25.5 °F 30.12 in WNW 6.0 mph 9.0 mph 79 % 0.00 in 0 W/m2
03:38 31.3 °F 25.5 °F 30.12 in WNW 6.0 mph 10.0 mph 79 % 0.00 in 0 W/m2
03:43 31.3 °F 25.5 °F 30.12 in NW 4.0 mph 8.0 mph 79 % 0.00 in 0 W/m2
03:48 31.3 °F 25.5 °F 30.12 in WNW 6.0 mph 9.0 mph 79 % 0.00 in 0 W/m2
03:53 31.3 °F 25.5 °F 30.12 in NW 5.0 mph 8.0 mph 79 % 0.00 in 0 W/m2
03:58 31.3 °F 25.5 °F 30.12 in NW 6.0 mph 11.0 mph 79 % 0.00 in 0 W/m2
04:03 31.1 °F 25.0 °F 30.12 in NW 6.0 mph 9.0 mph 78 % 0.00 in 0 W/m2
04:08 31.1 °F 25.0 °F 30.12 in NW 7.0 mph 11.0 mph 78 % 0.00 in 0 W/m2
04:13 31.1 °F 25.0 °F 30.12 in NW 4.0 mph 7.0 mph 78 % 0.00 in 0 W/m2
04:18 30.9 °F 24.9 °F 30.12 in NW 6.0 mph 10.0 mph 78 % 0.00 in 0 W/m2
04:23 30.9 °F 24.9 °F 30.12 in NW 6.0 mph 10.0 mph 78 % 0.00 in 0 W/m2
04:28 30.7 °F 24.7 °F 30.12 in NW 6.0 mph 10.0 mph 78 % 0.00 in 0 W/m2
04:33 30.7 °F 24.7 °F 30.12 in NW 4.0 mph 8.0 mph 78 % 0.00 in 0 W/m2
04:38 30.6 °F 24.5 °F 30.12 in NW 5.0 mph 9.0 mph 78 % 0.00 in 0 W/m2
04:43 30.6 °F 24.5 °F 30.12 in NW 6.0 mph 8.0 mph 78 % 0.00 in 0 W/m2
04:48 30.4 °F 24.3 °F 30.12 in NW 4.0 mph 8.0 mph 78 % 0.00 in 0 W/m2
04:53 30.2 °F 24.2 °F 30.12 in NW 4.0 mph 7.0 mph 78 % 0.00 in 0 W/m2
04:58 30.2 °F 24.2 °F 30.12 in NW 6.0 mph 10.0 mph 78 % 0.00 in 0 W/m2
05:03 30.0 °F 24.0 °F 30.12 in NW 6.0 mph 10.0 mph 78 % 0.00 in 0 W/m2
05:08 30.0 °F 24.3 °F 30.12 in NW 5.0 mph 8.0 mph 79 % 0.00 in 0 W/m2
05:13 29.8 °F 24.1 °F 30.12 in NW 5.0 mph 10.0 mph 79 % 0.00 in 0 W/m2
05:18 29.8 °F 24.1 °F 30.12 in NW 6.0 mph 8.0 mph 79 % 0.00 in 0 W/m2
05:23 29.7 °F 23.9 °F 30.13 in NW 5.0 mph 10.0 mph 79 % 0.00 in 0 W/m2
05:28 29.7 °F 23.9 °F 30.13 in NW 7.0 mph 12.0 mph 79 % 0.00 in 0 W/m2
05:33 29.5 °F 23.8 °F 30.13 in NW 5.0 mph 9.0 mph 79 % 0.00 in 0 W/m2
05:38 29.5 °F 24.1 °F 30.13 in NW 5.0 mph 8.0 mph 80 % 0.00 in 0 W/m2
05:43 29.5 °F 24.1 °F 30.13 in NW 5.0 mph 8.0 mph 80 % 0.00 in 0 W/m2
05:48 29.3 °F 23.9 °F 30.13 in NW 6.0 mph 11.0 mph 80 % 0.00 in 0 W/m2
05:53 29.3 °F 23.9 °F 30.13 in NW 6.0 mph 10.0 mph 80 % 0.00 in 0 W/m2
05:58 29.1 °F 23.7 °F 30.13 in NW 6.0 mph 9.0 mph 80 % 0.00 in 0 W/m2
06:03 29.1 °F 23.7 °F 30.13 in WNW 6.0 mph 8.0 mph 80 % 0.00 in 0 W/m2
06:08 28.9 °F 23.5 °F 30.13 in WNW 5.0 mph 9.0 mph 80 % 0.00 in 0 W/m2
06:13 28.9 °F 23.8 °F 30.14 in WNW 7.0 mph 9.0 mph 81 % 0.00 in 0 W/m2
06:18 28.9 °F 23.8 °F 30.14 in WNW 6.0 mph 12.0 mph 81 % 0.00 in 0 W/m2
06:24 28.9 °F 23.8 °F 30.14 in NW 5.0 mph 9.0 mph 81 % 0.00 in 0 W/m2
06:29 28.9 °F 23.8 °F 30.14 in NW 3.0 mph 6.0 mph 81 % 0.00 in 0 W/m2
06:34 28.8 °F 23.7 °F 30.13 in WNW 3.0 mph 6.0 mph 81 % 0.00 in 0 W/m2
06:38 28.8 °F 23.7 °F 30.13 in NW 4.0 mph 6.0 mph 81 % 0.00 in 0 W/m2
06:44 28.8 °F 23.7 °F 30.14 in WNW 4.0 mph 7.0 mph 81 % 0.00 in 0 W/m2
06:49 28.6 °F 23.5 °F 30.14 in WNW 3.0 mph 5.0 mph 81 % 0.00 in 0 W/m2
06:54 28.6 °F 23.5 °F 30.14 in WNW 3.0 mph 5.0 mph 81 % 0.00 in 0 W/m2
06:59 28.4 °F 23.6 °F 30.14 in WNW 5.0 mph 7.0 mph 82 % 0.00 in 0 W/m2
07:04 28.2 °F 23.4 °F 30.14 in WNW 3.0 mph 7.0 mph 82 % 0.00 in 0 W/m2
07:09 28.2 °F 23.4 °F 30.14 in WNW 4.0 mph 6.0 mph 82 % 0.00 in 0 W/m2
07:14 28.0 °F 23.3 °F 30.15 in WNW 1.0 mph 4.0 mph 82 % 0.00 in 0 W/m2
07:19 28.0 °F 23.3 °F 30.14 in WNW 3.0 mph 5.0 mph 82 % 0.00 in 0 W/m2
07:24 27.9 °F 23.1 °F 30.14 in WNW 2.0 mph 5.0 mph 82 % 0.00 in 0 W/m2
07:29 27.9 °F 23.4 °F 30.14 in WNW 3.0 mph 6.0 mph 83 % 0.00 in 0 W/m2
07:34 27.7 °F 23.2 °F 30.15 in WNW 3.0 mph 6.0 mph 83 % 0.00 in 0 W/m2
07:39 27.7 °F 23.2 °F 30.15 in WNW 4.0 mph 7.0 mph 83 % 0.00 in 5 W/m2
07:44 27.7 °F 23.2 °F 30.15 in WNW 4.0 mph 6.0 mph 83 % 0.00 in 5 W/m2
07:49 27.7 °F 23.5 °F 30.15 in NW 4.0 mph 8.0 mph 84 % 0.00 in 7 W/m2
07:54 27.7 °F 23.2 °F 30.16 in NW 4.0 mph 8.0 mph 83 % 0.00 in 9 W/m2
07:59 27.7 °F 23.5 °F 30.16 in WNW 5.0 mph 8.0 mph 84 % 0.00 in 11 W/m2
08:04 27.7 °F 23.5 °F 30.16 in WNW 4.0 mph 7.0 mph 84 % 0.00 in 12 W/m2
08:09 27.7 °F 23.5 °F 30.16 in NW 4.0 mph 6.0 mph 84 % 0.00 in 14 W/m2
08:14 27.7 °F 23.2 °F 30.16 in WNW 4.0 mph 6.0 mph 83 % 0.00 in 18 W/m2
08:19 27.9 °F 23.4 °F 30.16 in WNW 4.0 mph 7.0 mph 83 % 0.00 in 19 W/m2
08:24 28.0 °F 23.5 °F 30.16 in WNW 4.0 mph 8.0 mph 83 % 0.00 in 21 W/m2
08:29 28.2 °F 24.0 °F 30.16 in NW 3.0 mph 7.0 mph 84 % 0.00 in 23 W/m2
08:34 28.4 °F 23.9 °F 30.17 in WNW 5.0 mph 7.0 mph 83 % 0.00 in 25 W/m2
08:39 28.6 °F 24.1 °F 30.17 in WNW 4.0 mph 7.0 mph 83 % 0.00 in 25 W/m2
08:44 28.9 °F 24.4 °F 30.16 in WNW 3.0 mph 6.0 mph 83 % 0.00 in 26 W/m2
08:49 29.1 °F 24.6 °F 30.17 in WNW 5.0 mph 7.0 mph 83 % 0.00 in 28 W/m2
08:54 29.5 °F 24.7 °F 30.17 in WNW 4.0 mph 7.0 mph 82 % 0.00 in 56 W/m2
08:59 29.7 °F 24.8 °F 30.16 in WNW 3.0 mph 6.0 mph 82 % 0.00 in 155 W/m2
09:04 30.0 °F 24.9 °F 30.17 in NW 4.0 mph 6.0 mph 81 % 0.00 in 171 W/m2
09:09 30.2 °F 25.1 °F 30.17 in WNW 4.0 mph 9.0 mph 81 % 0.00 in 181 W/m2
09:14 30.6 °F 25.1 °F 30.17 in WNW 6.0 mph 10.0 mph 80 % 0.00 in 192 W/m2
09:19 30.9 °F 25.2 °F 30.17 in WNW 6.0 mph 9.0 mph 79 % 0.00 in 204 W/m2
09:24 31.3 °F 25.2 °F 30.17 in WNW 5.0 mph 8.0 mph 78 % 0.00 in 213 W/m2
09:29 31.6 °F 25.3 °F 30.17 in NW 4.0 mph 10.0 mph 77 % 0.00 in 223 W/m2
09:34 32.4 °F 25.6 °F 30.17 in NW 4.0 mph 8.0 mph 76 % 0.00 in 234 W/m2
09:39 32.9 °F 25.8 °F 30.17 in NW 5.0 mph 9.0 mph 75 % 0.00 in 244 W/m2
09:44 33.4 °F 26.0 °F 30.17 in NW 5.0 mph 8.0 mph 74 % 0.00 in 253 W/m2
09:49 34.0 °F 26.6 °F 30.17 in NW 3.0 mph 6.0 mph 74 % 0.00 in 262 W/m2
09:54 34.3 °F 26.2 °F 30.18 in NW 5.0 mph 7.0 mph 72 % 0.00 in 272 W/m2
09:59 34.5 °F 26.1 °F 30.18 in NW 6.0 mph 9.0 mph 71 % 0.00 in 283 W/m2
10:04 34.9 °F 26.4 °F 30.18 in NW 4.0 mph 10.0 mph 71 % 0.00 in 290 W/m2
10:09 35.2 °F 26.4 °F 30.18 in NW 5.0 mph 9.0 mph 70 % 0.00 in 299 W/m2
10:14 35.4 °F 26.6 °F 30.18 in NW 6.0 mph 11.0 mph 70 % 0.00 in 308 W/m2
10:19 35.6 °F 26.4 °F 30.18 in NW 7.0 mph 10.0 mph 69 % 0.00 in 316 W/m2
10:24 35.8 °F 26.6 °F 30.19 in NW 6.0 mph 10.0 mph 69 % 0.00 in 323 W/m2
10:29 36.0 °F 26.8 °F 30.18 in NW 5.0 mph 10.0 mph 69 % 0.00 in 329 W/m2
10:34 36.0 °F 26.4 °F 30.18 in NW 7.0 mph 12.0 mph 68 % 0.00 in 336 W/m2
10:40 36.0 °F 26.4 °F 30.18 in NW 6.0 mph 9.0 mph 68 % 0.00 in 345 W/m2
10:45 36.1 °F 26.2 °F 30.18 in NW 6.0 mph 9.0 mph 67 % 0.00 in 352 W/m2
10:50 36.3 °F 26.4 °F 30.18 in NNW 4.0 mph 7.0 mph 67 % 0.00 in 359 W/m2
10:55 36.7 °F 26.7 °F 30.18 in NW 5.0 mph 8.0 mph 67 % 0.00 in 366 W/m2
11:00 37.0 °F 26.7 °F 30.18 in NW 6.0 mph 9.0 mph 66 % 0.00 in 369 W/m2
11:04 37.0 °F 26.4 °F 30.18 in NNW 5.0 mph 7.0 mph 65 % 0.00 in 376 W/m2
11:10 37.0 °F 26.7 °F 30.18 in NW 6.0 mph 9.0 mph 66 % 0.00 in 381 W/m2
11:15 37.6 °F 26.9 °F 30.18 in NW 4.0 mph 7.0 mph 65 % 0.00 in 385 W/m2
11:20 37.8 °F 27.0 °F 30.18 in NW 3.0 mph 6.0 mph 65 % 0.00 in 392 W/m2
11:25 37.9 °F 27.2 °F 30.17 in NW 3.0 mph 6.0 mph 65 % 0.00 in 394 W/m2
11:30 38.3 °F 27.2 °F 30.17 in NW 4.0 mph 8.0 mph 64 % 0.00 in 397 W/m2
11:35 38.7 °F 27.1 °F 30.17 in NW 6.0 mph 8.0 mph 63 % 0.00 in 403 W/m2
11:40 38.7 °F 27.1 °F 30.17 in NW 4.0 mph 7.0 mph 63 % 0.00 in 404 W/m2
11:45 38.8 °F 27.3 °F 30.17 in NNW 3.0 mph 5.0 mph 63 % 0.00 in 410 W/m2
11:50 38.7 °F 26.8 °F 30.17 in NW 4.0 mph 7.0 mph 62 % 0.00 in 410 W/m2
11:55 38.8 °F 27.3 °F 30.17 in NNW 4.0 mph 8.0 mph 63 % 0.00 in 415 W/m2
12:00 38.7 °F 26.8 °F 30.17 in NNW 6.0 mph 8.0 mph 62 % 0.00 in 413 W/m2
12:05 38.5 °F 27.0 °F 30.17 in NW 4.0 mph 7.0 mph 63 % 0.00 in 411 W/m2
12:10 38.7 °F 27.1 °F 30.17 in WNW 3.0 mph 8.0 mph 63 % 0.00 in 411 W/m2
12:15 39.0 °F 26.7 °F 30.17 in WNW 6.0 mph 9.0 mph 61 % 0.00 in 413 W/m2
12:20 39.4 °F 26.6 °F 30.17 in West 4.0 mph 7.0 mph 60 % 0.00 in 415 W/m2
12:25 39.6 °F 26.4 °F 30.17 in NW 5.0 mph 9.0 mph 59 % 0.00 in 413 W/m2
12:30 39.6 °F 26.4 °F 30.17 in NW 5.0 mph 7.0 mph 59 % 0.00 in 413 W/m2
12:35 39.7 °F 26.2 °F 30.17 in WNW 4.0 mph 8.0 mph 58 % 0.00 in 411 W/m2
12:40 39.9 °F 26.7 °F 30.16 in West 6.0 mph 9.0 mph 59 % 0.00 in 413 W/m2
12:45 40.1 °F 26.5 °F 30.16 in WNW 7.0 mph 12.0 mph 58 % 0.00 in 410 W/m2
12:50 40.1 °F 26.5 °F 30.16 in NW 6.0 mph 11.0 mph 58 % 0.00 in 410 W/m2
12:55 40.1 °F 26.1 °F 30.16 in WNW 4.0 mph 6.0 mph 57 % 0.00 in 410 W/m2
13:00 40.5 °F 26.8 °F 30.16 in WNW 3.0 mph 9.0 mph 58 % 0.00 in 413 W/m2
13:05 40.6 °F 26.6 °F 30.15 in West 5.0 mph 8.0 mph 57 % 0.00 in 420 W/m2
13:10 40.8 °F 26.7 °F 30.15 in WNW 6.0 mph 8.0 mph 57 % 0.00 in 369 W/m2
13:15 40.8 °F 26.3 °F 30.15 in West 5.0 mph 8.0 mph 56 % 0.00 in 323 W/m2
13:20 40.8 °F 26.3 °F 30.15 in WNW 5.0 mph 8.0 mph 56 % 0.00 in 369 W/m2
13:25 40.8 °F 25.9 °F 30.15 in West 6.0 mph 9.0 mph 55 % 0.00 in 374 W/m2
13:30 40.8 °F 25.9 °F 30.15 in WNW 7.0 mph 9.0 mph 55 % 0.00 in 388 W/m2
13:35 40.6 °F 25.3 °F 30.15 in West 6.0 mph 10.0 mph 54 % 0.00 in 387 W/m2
13:40 40.6 °F 25.7 °F 30.15 in West 6.0 mph 11.0 mph 55 % 0.00 in 374 W/m2
13:45 40.5 °F 26.0 °F 30.15 in West 8.0 mph 12.0 mph 56 % 0.00 in 355 W/m2
13:50 40.5 °F 26.8 °F 30.14 in WNW 7.0 mph 10.0 mph 58 % 0.00 in 352 W/m2
13:55 40.3 °F 26.7 °F 30.15 in West 8.0 mph 12.0 mph 58 % 0.00 in 302 W/m2
14:05 40.1 °F 26.1 °F 30.14 in WNW 5.0 mph 9.0 mph 57 % 0.00 in 325 W/m2
14:10 40.3 °F 26.2 °F 30.14 in WNW 7.0 mph 13.0 mph 57 % 0.00 in 285 W/m2
14:15 40.1 °F 26.9 °F 30.14 in West 7.0 mph 9.0 mph 59 % 0.00 in 149 W/m2
14:20 39.6 °F 26.0 °F 30.14 in WNW 8.0 mph 11.0 mph 58 % 0.00 in 169 W/m2
14:25 39.2 °F 25.6 °F 30.14 in WNW 9.0 mph 12.0 mph 58 % 0.00 in 262 W/m2
14:30 39.4 °F 26.2 °F 30.14 in West 5.0 mph 10.0 mph 59 % 0.00 in 290 W/m2
14:35 39.4 °F 26.2 °F 30.15 in NW 7.0 mph 10.0 mph 59 % 0.00 in 272 W/m2
14:40 39.6 °F 26.8 °F 30.14 in West 7.0 mph 9.0 mph 60 % 0.00 in 272 W/m2
14:45 39.7 °F 27.4 °F 30.14 in WNW 6.0 mph 11.0 mph 61 % 0.00 in 258 W/m2
14:51 39.7 °F 27.0 °F 30.14 in WNW 6.0 mph 10.0 mph 60 % 0.00 in 260 W/m2
14:56 39.9 °F 26.3 °F 30.14 in WNW 7.0 mph 11.0 mph 58 % 0.00 in 274 W/m2
15:01 39.7 °F 26.6 °F 30.13 in WNW 7.0 mph 9.0 mph 59 % 0.00 in 116 W/m2
15:06 39.6 °F 26.0 °F 30.13 in WNW 5.0 mph 8.0 mph 58 % 0.00 in 121 W/m2
15:11 39.0 °F 25.9 °F 30.13 in West 6.0 mph 8.0 mph 59 % 0.00 in 118 W/m2
15:16 38.8 °F 26.5 °F 30.13 in WNW 7.0 mph 10.0 mph 61 % 0.00 in 107 W/m2
15:21 38.7 °F 27.1 °F 30.13 in West 5.0 mph 9.0 mph 63 % 0.00 in 91 W/m2
15:26 38.3 °F 26.8 °F 30.13 in WSW 6.0 mph 9.0 mph 63 % 0.00 in 93 W/m2
15:31 37.9 °F 26.8 °F 30.13 in WSW 7.0 mph 9.0 mph 64 % 0.00 in 91 W/m2
15:36 37.8 °F 26.7 °F 30.13 in West 6.0 mph 10.0 mph 64 % 0.00 in 100 W/m2
15:41 37.8 °F 26.7 °F 30.13 in West 7.0 mph 11.0 mph 64 % 0.00 in 104 W/m2
15:46 37.6 °F 26.5 °F 30.13 in West 6.0 mph 9.0 mph 64 % 0.00 in 84 W/m2
15:51 37.6 °F 26.9 °F 30.13 in West 4.0 mph 7.0 mph 65 % 0.00 in 70 W/m2
15:56 37.4 °F 26.7 °F 30.13 in West 6.0 mph 8.0 mph 65 % 0.00 in 62 W/m2
16:01 37.2 °F 26.5 °F 30.13 in WSW 6.0 mph 10.0 mph 65 % 0.00 in 58 W/m2
16:06 37.0 °F 26.7 °F 30.13 in West 4.0 mph 7.0 mph 66 % 0.00 in 47 W/m2
16:11 37.0 °F 27.1 °F 30.13 in West 3.0 mph 6.0 mph 67 % 0.00 in 39 W/m2
16:16 36.9 °F 26.9 °F 30.13 in West 3.0 mph 6.0 mph 67 % 0.00 in 33 W/m2
16:21 36.9 °F 26.9 °F 30.13 in West 1.0 mph 3.0 mph 67 % 0.00 in 30 W/m2
16:26 36.7 °F 27.1 °F 30.13 in West 1.0 mph 2.0 mph 68 % 0.00 in 26 W/m2
16:31 36.7 °F 27.1 °F 30.13 in West 2.0 mph 5.0 mph 68 % 0.00 in 21 W/m2
16:36 36.5 °F 27.3 °F 30.13 in WSW 1.0 mph 4.0 mph 69 % 0.00 in 12 W/m2
16:41 36.5 °F 27.3 °F 30.12 in WSW 1.0 mph 2.0 mph 69 % 0.00 in 9 W/m2
16:46 36.3 °F 27.1 °F 30.13 in Calm   2.0 mph 69 % 0.00 in 7 W/m2
16:51 36.1 °F 27.3 °F 30.13 in Calm     70 % 0.00 in 5 W/m2
16:56 36.1 °F 27.3 °F 30.13 in West 2.0 mph 5.0 mph 70 % 0.00 in 5 W/m2
17:01 36.0 °F 27.5 °F 30.12 in West 3.0 mph 5.0 mph 71 % 0.00 in 0 W/m2
17:06 35.8 °F 27.6 °F 30.12 in West 3.0 mph 6.0 mph 72 % 0.00 in 0 W/m2
17:11 35.8 °F 27.6 °F 30.12 in West 2.0 mph 6.0 mph 72 % 0.00 in 0 W/m2
17:16 35.6 °F 27.8 °F 30.13 in West 1.0 mph 2.0 mph 73 % 0.00 in 0 W/m2
17:21 35.4 °F 27.6 °F 30.12 in Calm   4.0 mph 73 % 0.00 in 0 W/m2
17:26 35.2 °F 27.4 °F 30.13 in Calm   2.0 mph 73 % 0.00 in 0 W/m2
17:31 35.1 °F 27.3 °F 30.13 in West 2.0 mph 4.0 mph 73 % 0.00 in 0 W/m2
17:36 35.1 °F 27.6 °F 30.13 in West 1.0 mph 4.0 mph 74 % 0.00 in 0 W/m2
17:41 34.9 °F 27.4 °F 30.13 in Calm     74 % 0.00 in 0 W/m2
17:46 34.9 °F 27.4 °F 30.13 in Calm   1.0 mph 74 % 0.00 in 0 W/m2
17:51 34.5 °F 27.4 °F 30.12 in Calm   1.0 mph 75 % 0.00 in 0 W/m2
17:57 34.5 °F 27.4 °F 30.13 in WNW 1.0 mph 6.0 mph 75 % 0.00 in 0 W/m2
18:02 34.5 °F 27.7 °F 30.13 in WNW 3.0 mph 6.0 mph 76 % 0.00 in 0 W/m2
18:07 34.5 °F 28.1 °F 30.12 in WNW 4.0 mph 7.0 mph 77 % 0.00 in 0 W/m2
18:12 34.5 °F 28.1 °F 30.12 in WNW 4.0 mph 6.0 mph 77 % 0.00 in 0 W/m2
18:17 34.5 °F 28.1 °F 30.12 in WNW 4.0 mph 6.0 mph 77 % 0.00 in 0 W/m2
18:22 34.7 °F 28.2 °F 30.12 in WNW 3.0 mph 7.0 mph 77 % 0.00 in 0 W/m2
18:27 34.7 °F 28.5 °F 30.12 in WNW 4.0 mph 6.0 mph 78 % 0.00 in 0 W/m2
18:32 34.7 °F 28.5 °F 30.12 in West 3.0 mph 6.0 mph 78 % 0.00 in 0 W/m2
18:37 34.7 °F 28.5 °F 30.12 in WNW 3.0 mph 6.0 mph 78 % 0.00 in 0 W/m2
18:42 34.9 °F 28.7 °F 30.12 in West 1.0 mph 4.0 mph 78 % 0.00 in 0 W/m2
18:47 34.7 °F 28.5 °F 30.12 in West 1.0 mph 2.0 mph 78 % 0.00 in 0 W/m2
18:52 34.7 °F 28.5 °F 30.12 in West 1.0 mph 5.0 mph 78 % 0.00 in 0 W/m2
18:57 34.7 °F 28.5 °F 30.12 in West 3.0 mph 5.0 mph 78 % 0.00 in 0 W/m2
19:02 34.7 °F 28.5 °F 30.12 in WSW 1.0 mph 4.0 mph 78 % 0.00 in 0 W/m2
19:07 34.7 °F 28.5 °F 30.12 in West 1.0 mph 3.0 mph 78 % 0.00 in 0 W/m2
19:12 34.7 °F 28.5 °F 30.12 in Calm   3.0 mph 78 % 0.00 in 0 W/m2
19:17 34.7 °F 28.5 °F 30.12 in Calm   2.0 mph 78 % 0.00 in 0 W/m2
19:22 34.5 °F 28.4 °F 30.12 in West 1.0 mph 4.0 mph 78 % 0.00 in 0 W/m2
19:27 34.5 °F 28.4 °F 30.12 in WSW 1.0 mph 3.0 mph 78 % 0.00 in 0 W/m2
19:32 34.3 °F 28.2 °F 30.12 in Calm   2.0 mph 78 % 0.00 in 0 W/m2
19:37 34.3 °F 28.2 °F 30.11 in Calm   2.0 mph 78 % 0.00 in 0 W/m2
19:42 34.2 °F 28.0 °F 30.11 in Calm     78 % 0.00 in 0 W/m2
19:47 34.0 °F 27.8 °F 30.11 in Calm     78 % 0.00 in 0 W/m2
19:52 34.0 °F 28.2 °F 30.11 in Calm     79 % 0.00 in 0 W/m2
19:57 33.8 °F 28.0 °F 30.11 in Calm     79 % 0.00 in 0 W/m2
20:02 33.6 °F 28.1 °F 30.11 in Calm     80 % 0.00 in 0 W/m2
20:07 33.4 °F 27.9 °F 30.11 in Calm   2.0 mph 80 % 0.00 in 0 W/m2
20:12 33.3 °F 27.8 °F 30.11 in Calm   1.0 mph 80 % 0.00 in 0 W/m2
20:17 33.3 °F 27.8 °F 30.11 in Calm     80 % 0.00 in 0 W/m2
20:22 33.1 °F 27.9 °F 30.11 in Calm   1.0 mph 81 % 0.00 in 0 W/m2
20:27 33.1 °F 28.2 °F 30.11 in Calm     82 % 0.00 in 0 W/m2
20:32 33.1 °F 28.2 °F 30.11 in Calm     82 % 0.00 in 0 W/m2
20:37 33.1 °F 28.2 °F 30.10 in SW 1.0 mph 2.0 mph 82 % 0.00 in 0 W/m2
20:42 33.1 °F 28.2 °F 30.10 in Calm   2.0 mph 82 % 0.00 in 0 W/m2
20:47 33.3 °F 28.4 °F 30.10 in SSW 2.0 mph 5.0 mph 82 % 0.00 in 0 W/m2
20:52 33.3 °F 28.4 °F 30.09 in SSW 2.0 mph 4.0 mph 82 % 0.00 in 0 W/m2
20:57 33.4 °F 28.5 °F 30.09 in SSW 1.0 mph 5.0 mph 82 % 0.00 in 0 W/m2
21:02 33.4 °F 28.5 °F 30.09 in Calm   1.0 mph 82 % 0.00 in 0 W/m2
21:07 33.4 °F 28.5 °F 30.09 in Calm   1.0 mph 82 % 0.00 in 0 W/m2
21:12 33.4 °F 28.5 °F 30.09 in Calm     82 % 0.00 in 0 W/m2
21:18 33.4 °F 28.5 °F 30.09 in Calm     82 % 0.00 in 0 W/m2
21:23 33.3 °F 28.4 °F 30.09 in Calm     82 % 0.00 in 0 W/m2
21:28 33.3 °F 28.7 °F 30.09 in Calm     83 % 0.00 in 0 W/m2
21:33 33.3 °F 28.7 °F 30.09 in Calm     83 % 0.00 in 0 W/m2
21:38 33.3 °F 28.7 °F 30.09 in Calm     83 % 0.00 in 0 W/m2
21:43 33.3 °F 28.9 °F 30.09 in Calm     84 % 0.00 in 0 W/m2
21:48 33.3 °F 28.9 °F 30.08 in Calm     84 % 0.00 in 0 W/m2
21:53 33.3 °F 28.9 °F 30.08 in Calm     84 % 0.00 in 0 W/m2
21:58 33.3 °F 28.9 °F 30.08 in Calm     84 % 0.00 in 0 W/m2
22:03 33.3 °F 28.9 °F 30.08 in Calm     84 % 0.00 in 0 W/m2
22:08 33.3 °F 28.9 °F 30.08 in Calm     84 % 0.00 in 0 W/m2
22:13 33.4 °F 29.1 °F 30.08 in Calm     84 % 0.00 in 0 W/m2
22:18 33.4 °F 29.1 °F 30.08 in Calm     84 % 0.00 in 0 W/m2
22:23 33.4 °F 29.1 °F 30.08 in Calm     84 % 0.00 in 0 W/m2
22:28 33.4 °F 29.1 °F 30.08 in Calm     84 % 0.00 in 0 W/m2
22:33 33.4 °F 29.1 °F 30.08 in SSW 1.0 mph 2.0 mph 84 % 0.00 in 0 W/m2
22:38 33.4 °F 29.1 °F 30.08 in SSW 1.0 mph 2.0 mph 84 % 0.00 in 0 W/m2
22:43 33.4 °F 29.4 °F 30.07 in Calm   1.0 mph 85 % 0.00 in 0 W/m2
22:48 33.3 °F 29.2 °F 30.07 in SSW 2.0 mph 4.0 mph 85 % 0.00 in 0 W/m2
22:53 33.3 °F 29.2 °F 30.07 in Calm     85 % 0.00 in 0 W/m2
22:58 33.3 °F 29.2 °F 30.07 in Calm   2.0 mph 85 % 0.00 in 0 W/m2
23:03 33.3 °F 29.2 °F 30.07 in Calm     85 % 0.00 in 0 W/m2
23:08 33.3 °F 29.2 °F 30.07 in Calm     85 % 0.00 in 0 W/m2
23:13 33.3 °F 29.2 °F 30.07 in Calm     85 % 0.00 in 0 W/m2
23:18 33.1 °F 29.1 °F 30.07 in Calm     85 % 0.00 in 0 W/m2
23:23 33.1 °F 29.1 °F 30.07 in Calm     85 % 0.00 in 0 W/m2
23:28 33.1 °F 29.1 °F 30.07 in Calm     85 % 0.00 in 0 W/m2
23:33 33.1 °F 29.3 °F 30.07 in Calm     86 % 0.00 in 0 W/m2
23:38 33.1 °F 29.3 °F 30.07 in Calm     86 % 0.00 in 0 W/m2
23:43 33.1 °F 29.3 °F 30.07 in Calm     86 % 0.00 in 0 W/m2
23:48 33.3 °F 29.5 °F 30.06 in Calm   2.0 mph 86 % 0.00 in 0 W/m2
23:53 33.3 °F 29.5 °F 30.06 in Calm     86 % 0.00 in 0 W/m2
23:58 33.4 °F 29.7 °F 30.07 in Calm     86 % 0.00 in 0 W/m2
Delerius-Weather
Compliments of Weather Underground - 2.25 mb

Data updates at regular intervals.